createdAt,value
2022-08-22T00:00:21.004Z,96997.34
2022-08-22T00:02:49.632Z,96964.24
2022-08-22T00:02:52.693Z,96991.75
2022-08-22T00:03:07.259Z,96966.68
2022-08-22T00:03:36.106Z,96994.59
2022-08-22T00:06:14.035Z,96996.02
2022-08-22T00:08:55.762Z,96992.41
2022-08-22T00:11:40.114Z,96986.79
2022-08-22T00:14:24.539Z,96989.61
2022-08-22T00:16:55.505Z,96989.58
2022-08-22T00:19:50.254Z,96989.48
2022-08-22T00:22:43.849Z,96983.30
2022-08-22T00:25:33.134Z,96979.84
2022-08-22T00:28:04.058Z,96976.34
2022-08-22T00:30:45.578Z,96974.41
2022-08-22T00:33:33.046Z,96972.33
2022-08-22T00:36:23.242Z,96969.79
2022-08-22T00:39:06.560Z,96967.81
2022-08-22T00:42:05.275Z,96974.69
2022-08-22T00:45:03.120Z,96972.42
2022-08-22T00:48:10.067Z,96975.07
2022-08-22T00:50:59.200Z,96975.35
2022-08-22T00:53:48.997Z,96981.37
2022-08-22T00:56:48.708Z,96983.20
2022-08-22T00:59:29.941Z,96988.58
2022-08-22T01:02:27.388Z,96996.52
2022-08-22T01:05:17.568Z,96997.41
2022-08-22T01:07:52.801Z,97001.87
2022-08-22T01:10:47.739Z,97000.27
2022-08-22T01:13:15.618Z,96998.77
2022-08-22T01:15:45.148Z,96999.56
2022-08-22T01:18:52.352Z,96999.52
2022-08-22T01:21:37.157Z,96998.44
2022-08-22T01:24:26.527Z,97005.09
2022-08-22T01:27:00.412Z,97014.41
2022-08-22T01:30:34.025Z,97017.46
2022-08-22T01:33:43.815Z,97020.90
2022-08-22T01:36:14.401Z,97024.52
2022-08-22T01:39:00.537Z,97022.80
2022-08-22T01:41:59.138Z,97019.96
2022-08-22T01:44:39.073Z,97015.49
2022-08-22T01:47:14.095Z,97017.94
2022-08-22T01:49:53.795Z,97018.67
2022-08-22T01:52:42.454Z,97018.73
2022-08-22T01:55:35.509Z,97011.16
2022-08-22T01:58:27.019Z,96999.19
2022-08-22T02:01:26.968Z,96989.13
2022-08-22T02:04:22.109Z,96987.05
2022-08-22T02:07:04.924Z,96987.98
2022-08-22T02:10:00.480Z,96989.58
2022-08-22T02:12:43.389Z,96997.88
2022-08-22T02:15:14.308Z,96999.45
2022-08-22T02:17:51.203Z,96996.84
2022-08-22T02:20:21.904Z,96994.70
2022-08-22T02:23:09.482Z,96992.68
2022-08-22T02:25:55.242Z,96989.80
2022-08-22T02:28:57.010Z,96987.79
2022-08-22T02:31:47.031Z,96991.59
2022-08-22T02:34:17.842Z,96997.17
2022-08-22T02:36:54.015Z,97000.16
2022-08-22T02:39:28.653Z,97007.47
2022-08-22T02:42:07.103Z,97009.23
2022-08-22T02:44:42.351Z,97013.41
2022-08-22T02:47:20.787Z,97018.08
2022-08-22T02:50:00.454Z,97020.81
2022-08-22T02:53:13.143Z,97027.40
2022-08-22T02:55:48.362Z,97032.33
2022-08-22T02:58:16.433Z,97040.20
2022-08-22T03:00:52.196Z,97042.71
2022-08-22T03:03:31.785Z,97038.11
2022-08-22T03:06:07.653Z,97032.23
2022-08-22T03:08:42.910Z,97030.17
2022-08-22T03:11:26.516Z,97036.29
2022-08-22T03:14:07.517Z,97040.09
2022-08-22T03:16:44.860Z,97035.64
2022-08-22T03:19:22.552Z,97030.33
2022-08-22T03:22:03.052Z,97023.95
2022-08-22T03:24:53.238Z,97033.02
2022-08-22T03:27:35.022Z,97041.22
2022-08-22T03:30:02.980Z,97042.45
2022-08-22T03:33:08.661Z,97041.97
2022-08-22T03:35:57.325Z,97045.88
2022-08-22T03:38:34.377Z,97044.16
2022-08-22T03:41:12.569Z,97038.95
2022-08-22T03:44:09.425Z,97039.29
2022-08-22T03:46:57.910Z,97036.93
2022-08-22T03:49:50.319Z,97030.92
2022-08-22T03:52:57.130Z,97036.83
2022-08-22T03:55:53.162Z,97045.30
2022-08-22T03:58:58.038Z,97046.99
2022-08-22T04:01:44.017Z,97043.79
2022-08-22T04:04:33.576Z,97034.98
2022-08-22T04:07:28.038Z,97035.31
2022-08-22T04:10:38.138Z,97039.38
2022-08-22T04:13:39.990Z,97044.52
2022-08-22T04:16:14.469Z,97042.94
2022-08-22T04:19:48.152Z,97040.27
2022-08-22T04:22:22.983Z,97032.09
2022-08-22T04:24:53.578Z,97036.27
2022-08-22T04:27:31.301Z,97036.73
2022-08-22T04:30:07.211Z,97028.95
2022-08-22T04:32:43.446Z,97024.17
2022-08-22T04:35:39.442Z,97016.08
2022-08-22T04:38:40.314Z,97020.41
2022-08-22T04:41:43.451Z,97031.52
2022-08-22T04:44:19.201Z,97034.58
2022-08-22T04:46:57.386Z,97035.98
2022-08-22T04:49:40.840Z,97035.17
2022-08-22T04:52:54.606Z,97037.33
2022-08-22T04:55:46.793Z,97041.86
2022-08-22T04:58:35.664Z,97048.36
2022-08-22T05:01:06.786Z,97059.52
2022-08-22T05:03:44.759Z,97062.75
2022-08-22T05:06:16.719Z,97063.65
2022-08-22T05:08:48.455Z,97064.56
2022-08-22T05:11:23.764Z,97069.02
2022-08-22T05:13:58.641Z,97074.18
2022-08-22T05:16:42.742Z,97072.77
2022-08-22T05:19:31.700Z,97076.17
2022-08-22T05:22:02.015Z,97082.16
2022-08-22T05:24:39.606Z,97077.59
2022-08-22T05:27:16.040Z,97073.58
2022-08-22T05:29:47.348Z,97073.89
2022-08-22T05:32:27.474Z,97064.35
2022-08-22T05:35:02.175Z,97074.52
2022-08-22T05:37:44.290Z,97074.85
2022-08-22T05:40:21.386Z,97071.79
2022-08-22T05:42:49.716Z,97066.14
2022-08-22T05:45:19.343Z,97072.77
2022-08-22T05:47:52.637Z,97060.71
2022-08-22T05:50:27.519Z,97056.05
2022-08-22T05:53:17.399Z,97050.86
2022-08-22T05:55:56.765Z,97061.60
2022-08-22T05:58:40.201Z,97068.98
2022-08-22T06:01:27.061Z,97080.34
2022-08-22T06:04:13.771Z,97085.73
2022-08-22T06:06:52.685Z,97055.14
2022-08-22T06:10:02.413Z,97044.77
2022-08-22T06:12:46.198Z,97055.44
2022-08-22T06:15:30.579Z,97065.11
2022-08-22T06:18:05.952Z,97043.61
2022-08-22T06:20:34.068Z,97067.81
2022-08-22T06:23:03.474Z,97078.63
2022-08-22T06:25:37.967Z,97072.09
2022-08-22T06:28:14.089Z,97043.36
2022-08-22T06:30:46.147Z,97028.69
2022-08-22T06:33:26.557Z,97023.08
2022-08-22T06:36:36.643Z,97029.44
2022-08-22T06:39:49.713Z,97028.90
2022-08-22T06:42:40.797Z,97040.25
2022-08-22T06:45:17.394Z,97030.09
2022-08-22T06:47:58.033Z,97023.16
2022-08-22T06:50:39.971Z,97032.56
2022-08-22T06:53:16.043Z,97031.36
2022-08-22T06:56:03.532Z,97028.49
2022-08-22T06:58:56.880Z,97024.03
2022-08-22T07:01:30.241Z,97020.54
2022-08-22T07:04:05.183Z,97016.27
2022-08-22T07:06:41.335Z,97015.78
2022-08-22T07:09:22.107Z,97021.86
2022-08-22T07:11:52.310Z,97015.96
2022-08-22T07:14:33.559Z,97010.33
2022-08-22T07:17:05.154Z,97012.89
2022-08-22T07:19:37.032Z,97017.39
2022-08-22T07:22:27.511Z,97025.36
2022-08-22T07:25:15.133Z,97026.10
2022-08-22T07:28:16.181Z,97033.60
2022-08-22T07:30:58.209Z,97017.71
2022-08-22T07:33:44.278Z,97018.08
2022-08-22T07:36:50.866Z,97017.90
2022-08-22T07:39:36.134Z,97013.96
2022-08-22T07:42:08.587Z,97012.49
2022-08-22T07:44:53.922Z,97010.52
2022-08-22T07:47:28.870Z,97011.84
2022-08-22T07:50:05.867Z,97004.73
2022-08-22T07:52:49.843Z,96999.04
2022-08-22T07:55:23.362Z,96999.75
2022-08-22T07:58:01.928Z,97002.92
2022-08-22T08:00:33.120Z,97002.11
2022-08-22T08:03:08.313Z,97001.73
2022-08-22T08:05:41.355Z,96998.81
2022-08-22T08:08:33.754Z,96992.17
2022-08-22T08:11:06.146Z,96998.30
2022-08-22T08:13:44.270Z,96997.76
2022-08-22T08:16:19.498Z,96991.86
2022-08-22T08:18:52.584Z,96989.35
2022-08-22T08:21:36.439Z,96992.05
2022-08-22T08:24:09.003Z,96985.10
2022-08-22T08:27:04.253Z,96986.75
2022-08-22T08:29:32.968Z,96987.88
2022-08-22T08:32:02.222Z,96983.52
2022-08-22T08:34:35.500Z,96981.50
2022-08-22T08:37:10.420Z,96980.44
2022-08-22T08:39:50.801Z,96981.71
2022-08-22T08:43:18.655Z,96981.95
2022-08-22T08:46:34.765Z,96978.04
2022-08-22T08:50:01.246Z,96979.92
2022-08-22T08:52:36.433Z,96982.12
2022-08-22T08:55:21.816Z,96984.32
2022-08-22T08:58:25.093Z,96989.64
2022-08-22T09:01:20.322Z,96988.91
2022-08-22T09:04:20.170Z,96989.42
2022-08-22T09:07:22.328Z,96985.82
2022-08-22T09:10:30.110Z,96981.95
2022-08-22T09:13:21.157Z,96980.41
2022-08-22T09:16:19.450Z,96979.89
2022-08-22T09:19:10.143Z,96979.55
2022-08-22T09:22:16.071Z,96979.89
2022-08-22T09:25:09.086Z,96974.70
2022-08-22T09:28:03.517Z,96969.40
2022-08-22T09:31:00.953Z,96967.63
2022-08-22T09:33:59.322Z,96964.98
2022-08-22T09:36:55.018Z,96961.48
2022-08-22T09:39:36.373Z,96968.77
2022-08-22T09:42:18.901Z,96965.22
2022-08-22T09:45:25.995Z,96963.83
2022-08-22T09:48:18.845Z,96962.92
2022-08-22T09:51:31.672Z,96954.45
2022-08-22T09:54:31.183Z,96950.67
2022-08-22T09:57:37.687Z,96945.82
2022-08-22T10:00:06.800Z,96940.90
2022-08-22T10:02:44.418Z,96941.80
2022-08-22T10:05:44.976Z,96939.48
2022-08-22T10:08:46.037Z,96936.73
2022-08-22T10:11:18.999Z,96934.25
2022-08-22T10:14:03.381Z,96928.64
2022-08-22T10:16:57.655Z,96928.28
2022-08-22T10:19:34.380Z,96927.60
2022-08-22T10:22:24.314Z,96936.02
2022-08-22T10:25:22.737Z,96935.77
2022-08-22T10:28:10.387Z,96937.33
2022-08-22T10:31:09.148Z,96937.79
2022-08-22T10:33:41.812Z,96934.58
2022-08-22T10:36:28.566Z,96936.16
2022-08-22T10:39:02.724Z,96934.05
2022-08-22T10:42:11.446Z,96929.63
2022-08-22T10:45:05.689Z,96925.20
2022-08-22T10:48:08.854Z,96921.30
2022-08-22T10:50:45.363Z,96918.23
2022-08-22T10:53:35.318Z,96919.65
2022-08-22T10:56:11.962Z,96914.13
2022-08-22T10:59:09.458Z,96913.97
2022-08-22T11:01:48.380Z,96908.61
2022-08-22T11:04:19.805Z,96902.75
2022-08-22T11:07:18.720Z,96905.80
2022-08-22T11:10:02.653Z,96907.44
2022-08-22T11:12:45.484Z,96907.76
2022-08-22T11:15:37.650Z,96909.29
2022-08-22T11:19:02.579Z,96905.82
2022-08-22T11:22:10.125Z,96905.36
2022-08-22T11:25:26.882Z,96904.25
2022-08-22T11:28:18.041Z,96895.11
2022-08-22T11:31:14.198Z,96888.19
2022-08-22T11:34:15.400Z,96889.67
2022-08-22T11:36:56.471Z,96882.05
2022-08-22T11:39:45.959Z,96880.38
2022-08-22T11:42:34.151Z,96878.77
2022-08-22T11:45:06.885Z,96872.48
2022-08-22T11:47:47.509Z,96871.35
2022-08-22T11:50:42.177Z,96872.77
2022-08-22T11:53:58.655Z,96865.49
2022-08-22T11:56:37.150Z,96859.49
2022-08-22T11:59:33.795Z,96853.05
2022-08-22T12:02:19.553Z,96845.24
2022-08-22T12:04:56.697Z,96849.23
2022-08-22T12:07:31.369Z,96844.27
2022-08-22T12:10:13.671Z,96842.02
2022-08-22T12:13:08.010Z,96843.40
2022-08-22T12:15:44.022Z,96837.23
2022-08-22T12:18:29.595Z,96832.46
2022-08-22T12:21:38.388Z,96833.55
2022-08-22T12:25:02.722Z,96831.71
2022-08-22T12:28:23.366Z,96830.97
2022-08-22T12:31:30.932Z,96827.13
2022-08-22T12:34:18.340Z,96831.11
2022-08-22T12:37:11.332Z,96832.01
2022-08-22T12:39:54.629Z,96827.33
2022-08-22T12:42:46.721Z,96826.44
2022-08-22T12:45:23.837Z,96826.95
2022-08-22T12:48:10.798Z,96828.61
2022-08-22T12:51:18.351Z,96828.09
2022-08-22T12:54:25.800Z,96824.47
2022-08-22T12:57:23.554Z,96824.56
2022-08-22T13:00:01.726Z,96829.14
2022-08-22T13:02:35.452Z,96831.43
2022-08-22T13:05:19.972Z,96830.43
2022-08-22T13:08:05.551Z,96835.14
2022-08-22T13:10:44.799Z,96836.41
2022-08-22T13:13:36.852Z,96839.36
2022-08-22T13:16:16.046Z,96840.42
2022-08-22T13:19:07.638Z,96839.98
2022-08-22T13:21:43.625Z,96834.12
2022-08-22T13:24:51.957Z,96828.81
2022-08-22T13:27:51.587Z,96833.20
2022-08-22T13:30:30.310Z,96831.93
2022-08-22T13:33:11.133Z,96831.55
2022-08-22T13:36:01.423Z,96833.45
2022-08-22T13:38:54.139Z,96838.27
2022-08-22T13:41:33.516Z,96839.39
2022-08-22T13:44:07.598Z,96839.77
2022-08-22T13:46:52.707Z,96840.77
2022-08-22T13:49:36.488Z,96845.08
2022-08-22T13:52:30.031Z,96846.03
2022-08-22T13:55:19.577Z,96845.66
2022-08-22T13:57:54.102Z,96847.68
2022-08-22T14:00:57.293Z,96843.38
2022-08-22T14:03:39.089Z,96837.39
2022-08-22T14:06:47.071Z,96839.93
2022-08-22T14:09:31.704Z,96841.52
2022-08-22T14:12:12.862Z,96844.89
2022-08-22T14:14:49.090Z,96846.89
2022-08-22T14:17:30.284Z,96848.71
2022-08-22T14:20:11.068Z,96844.86
2022-08-22T14:22:57.344Z,96841.84
2022-08-22T14:25:36.489Z,96841.18
2022-08-22T14:28:20.834Z,96839.72
2022-08-22T14:31:00.892Z,96836.83
2022-08-22T14:33:58.297Z,96832.89
2022-08-22T14:36:49.658Z,96833.54
2022-08-22T14:39:42.753Z,96830.62
2022-08-22T14:42:17.952Z,96826.27
2022-08-22T14:45:08.820Z,96822.66
2022-08-22T14:48:29.762Z,96826.77
2022-08-22T14:51:01.474Z,96822.92
2022-08-22T14:53:37.091Z,96829.19
2022-08-22T14:56:17.991Z,96830.91
2022-08-22T14:59:14.908Z,96830.36
2022-08-22T15:02:15.964Z,96831.16
2022-08-22T15:04:48.212Z,96831.84
2022-08-22T15:07:27.082Z,96830.45
2022-08-22T15:10:21.538Z,96828.05
2022-08-22T15:12:56.575Z,96829.08
2022-08-22T15:15:53.362Z,96829.95
2022-08-22T15:18:29.362Z,96826.48
2022-08-22T15:21:08.562Z,96833.70
2022-08-22T15:23:45.165Z,96840.19
2022-08-22T15:26:30.698Z,96846.98
2022-08-22T15:29:15.337Z,96846.60
2022-08-22T15:31:46.898Z,96852.64
2022-08-22T15:34:24.691Z,96858.23
2022-08-22T15:37:07.885Z,96864.76
2022-08-22T15:39:59.507Z,96869.46
2022-08-22T15:42:33.335Z,96880.33
2022-08-22T15:45:07.109Z,96883.31
2022-08-22T15:47:42.059Z,96891.02
2022-08-22T15:50:40.028Z,96892.89
2022-08-22T15:53:56.687Z,96894.93
2022-08-22T15:56:36.555Z,96895.21
2022-08-22T15:59:20.440Z,96894.00
2022-08-22T16:02:00.640Z,96898.83
2022-08-22T16:04:42.161Z,96894.30
2022-08-22T16:07:37.906Z,96891.79
2022-08-22T16:10:20.496Z,96899.17
2022-08-22T16:13:16.981Z,96905.95
2022-08-22T16:15:50.196Z,96910.34
2022-08-22T16:18:33.394Z,96915.34
2022-08-22T16:21:02.792Z,96917.86
2022-08-22T16:23:51.396Z,96918.85
2022-08-22T16:26:40.383Z,96923.64
2022-08-22T16:29:18.289Z,96934.06
2022-08-22T16:31:47.400Z,96941.11
2022-08-22T16:34:18.367Z,96943.89
2022-08-22T16:37:19.594Z,96948.46
2022-08-22T16:40:01.155Z,96947.21
2022-08-22T16:42:39.843Z,96951.17
2022-08-22T16:45:32.659Z,96946.82
2022-08-22T16:48:22.385Z,96948.77
2022-08-22T16:51:12.519Z,96954.04
2022-08-22T16:53:45.729Z,96956.07
2022-08-22T16:56:38.540Z,96956.17
2022-08-22T16:59:24.130Z,96964.23
2022-08-22T17:02:10.317Z,96957.95
2022-08-22T17:05:14.097Z,96963.17
2022-08-22T17:07:57.504Z,96975.20
2022-08-22T17:10:49.972Z,96982.17
2022-08-22T17:13:26.562Z,96982.08
2022-08-22T17:16:08.069Z,96980.64
2022-08-22T17:18:56.591Z,96975.02
2022-08-22T17:21:37.430Z,96983.65
2022-08-22T17:24:32.120Z,96990.66
2022-08-22T17:27:18.169Z,96993.77
2022-08-22T17:29:58.448Z,96999.79
2022-08-22T17:32:59.062Z,97007.81
2022-08-22T17:35:45.791Z,97021.08
2022-08-22T17:38:35.429Z,97028.14
2022-08-22T17:41:33.906Z,97032.66
2022-08-22T17:44:32.204Z,97036.73
2022-08-22T17:47:06.091Z,97040.41
2022-08-22T17:49:51.458Z,97048.77
2022-08-22T17:52:30.536Z,97066.64
2022-08-22T17:55:19.368Z,97083.60
2022-08-22T17:58:12.231Z,97096.10
2022-08-22T18:01:13.817Z,97102.37
2022-08-22T18:04:00.310Z,97104.16
2022-08-22T18:06:33.220Z,97099.67
2022-08-22T18:09:44.530Z,97102.51
2022-08-22T18:12:29.123Z,97099.96
2022-08-22T18:15:07.727Z,97093.84
2022-08-22T18:17:44.505Z,97088.44
2022-08-22T18:20:30.671Z,97086.20
2022-08-22T18:23:39.049Z,97079.39
2022-08-22T18:26:13.659Z,97088.81
2022-08-22T18:28:50.212Z,97095.48
2022-08-22T18:31:29.946Z,97092.42
2022-08-22T18:34:05.327Z,97102.38
2022-08-22T18:36:39.111Z,97105.17
2022-08-22T18:39:23.494Z,97107.34
2022-08-22T18:42:04.517Z,97095.27
2022-08-22T18:44:36.480Z,97097.02
2022-08-22T18:47:27.467Z,97099.02
2022-08-22T18:49:57.671Z,97107.16
2022-08-22T18:52:29.897Z,97102.36
2022-08-22T18:55:20.008Z,97126.54
2022-08-22T18:58:06.564Z,97136.87
2022-08-22T19:00:45.542Z,97150.71
2022-08-22T19:03:28.024Z,97149.14
2022-08-22T19:06:07.941Z,97145.65
2022-08-22T19:08:45.203Z,97154.32
2022-08-22T19:11:38.186Z,97157.42
2022-08-22T19:14:22.062Z,97157.23
2022-08-22T19:17:15.732Z,97157.81
2022-08-22T19:20:20.455Z,97165.59
2022-08-22T19:22:50.927Z,97170.48
2022-08-22T19:25:28.453Z,97171.52
2022-08-22T19:28:09.495Z,97179.58
2022-08-22T19:30:41.216Z,97182.54
2022-08-22T19:33:19.728Z,97182.15
2022-08-22T19:35:56.534Z,97183.84
2022-08-22T19:38:53.980Z,97180.83
2022-08-22T19:41:40.390Z,97182.03
2022-08-22T19:44:20.504Z,97175.67
2022-08-22T19:47:21.562Z,97178.06
2022-08-22T19:49:58.686Z,97178.86
2022-08-22T19:52:37.653Z,97187.99
2022-08-22T19:55:18.150Z,97201.39
2022-08-22T19:57:52.180Z,97197.98
2022-08-22T20:00:53.662Z,97192.66
2022-08-22T20:03:47.129Z,97198.14
2022-08-22T20:06:44.699Z,97192.23
2022-08-22T20:09:43.859Z,97205.62
2022-08-22T20:12:22.467Z,97212.27
2022-08-22T20:14:51.814Z,97219.44
2022-08-22T20:17:24.974Z,97230.66
2022-08-22T20:23:15.935Z,97240.26
2022-08-22T20:25:50.485Z,97239.84
2022-08-22T20:28:37.998Z,97244.67
2022-08-22T20:31:12.623Z,97252.66
2022-08-22T20:33:42.890Z,97250.75
2022-08-22T20:36:28.549Z,97250.05
2022-08-22T20:39:06.050Z,97246.61
2022-08-22T20:41:49.072Z,97243.83
2022-08-22T20:44:31.651Z,97253.17
2022-08-22T20:47:06.241Z,97255.42
2022-08-22T20:49:48.796Z,97257.05
2022-08-22T20:52:37.227Z,97251.36
2022-08-22T20:55:12.106Z,97254.42
2022-08-22T20:57:51.948Z,97253.30
2022-08-22T21:00:24.218Z,97264.19
2022-08-22T21:02:58.981Z,97257.64
2022-08-22T21:05:38.033Z,97250.45
2022-08-22T21:08:14.527Z,97247.71
2022-08-22T21:11:01.043Z,97251.31
2022-08-22T21:13:37.677Z,97257.92
2022-08-22T21:16:19.758Z,97271.28
2022-08-22T21:18:52.935Z,97276.91
2022-08-22T21:21:22.785Z,97277.23
2022-08-22T21:23:57.403Z,97273.79
2022-08-22T21:26:38.594Z,97267.29
2022-08-22T21:29:12.510Z,97267.91
2022-08-22T21:31:43.562Z,97270.05
2022-08-22T21:34:25.450Z,97269.78
2022-08-22T21:36:58.688Z,97263.13
2022-08-22T21:39:30.964Z,97262.48
2022-08-22T21:42:01.513Z,97265.64
2022-08-22T21:44:35.558Z,97259.70
2022-08-22T21:47:30.842Z,97258.67
2022-08-22T21:50:21.007Z,97255.17
2022-08-22T21:52:55.023Z,97257.73
2022-08-22T21:55:44.449Z,97261.55
2022-08-22T21:58:37.036Z,97259.61
2022-08-22T22:01:32.033Z,97252.80
2022-08-22T22:04:01.243Z,97250.27
2022-08-22T22:06:29.549Z,97246.83
2022-08-22T22:08:57.925Z,97251.59
2022-08-22T22:11:25.931Z,97244.35
2022-08-22T22:13:53.947Z,97243.08
2022-08-22T22:16:26.071Z,97247.78
2022-08-22T22:18:55.179Z,97248.40
2022-08-22T22:21:23.265Z,97251.77
2022-08-22T22:23:51.345Z,97253.95
2022-08-22T22:26:21.172Z,97252.73
2022-08-22T22:28:50.327Z,97245.23
2022-08-22T22:31:18.775Z,97242.23
2022-08-22T22:33:47.018Z,97240.77
2022-08-22T22:36:22.750Z,97240.45
2022-08-22T22:38:52.834Z,97240.02
2022-08-22T22:41:25.481Z,97246.55
2022-08-22T22:43:53.963Z,97252.80
2022-08-22T22:46:22.804Z,97261.87
2022-08-22T22:48:50.842Z,97260.65
2022-08-22T22:51:19.788Z,97266.44
2022-08-22T22:53:48.587Z,97260.49
2022-08-22T22:56:21.726Z,97259.23
2022-08-22T22:58:59.304Z,97261.39
2022-08-22T23:01:31.820Z,97258.39
2022-08-22T23:04:05.590Z,97251.09
2022-08-22T23:06:35.409Z,97249.05
2022-08-22T23:09:03.693Z,97248.01
2022-08-22T23:11:32.919Z,97253.02
2022-08-22T23:14:01.706Z,97250.75
2022-08-22T23:16:32.931Z,97249.72
2022-08-22T23:19:10.306Z,97255.79
2022-08-22T23:21:39.936Z,97258.28
2022-08-22T23:24:08.515Z,97255.82
2022-08-22T23:26:37.787Z,97252.04
2022-08-22T23:29:07.038Z,97254.43
2022-08-22T23:31:36.496Z,97252.80
2022-08-22T23:34:13.896Z,97260.76
2022-08-22T23:36:45.350Z,97260.48
2022-08-22T23:39:14.813Z,97258.29
2022-08-22T23:41:46.553Z,97251.80
2022-08-22T23:44:18.279Z,97250.98
2022-08-22T23:46:47.017Z,97245.92
2022-08-22T23:49:16.364Z,97249.48
2022-08-22T23:51:48.050Z,97250.64
2022-08-22T23:54:17.687Z,97247.52
2022-08-22T23:56:48.642Z,97250.04
2022-08-22T23:59:20.896Z,97249.84
